Flight Track Log - Related Links

Times and Time Zones

All times are in EST time to prevent confusion due to time zone crossing. See the N10WN flight status page for this flight to view local times or setup timezone preferences in your user account.

Time Position Orientation Groundspeed Altitude Reporting Facility
EST Latitude Longitude Course Direction KTS MPH feet Rate Location/Type
Sat 01:13:24 PM 32.9667 -96.8333 157° South 79 91 900  Level Dallas / Fort Worth TRACON
Sat 01:14:42 PM 32.9333 -96.8167 157° South 78 90 2,000 833 Climbing Dallas / Fort Worth TRACON
Sat 01:15:48 PM 32.9167 -96.8167 180° South 75 86 2,900 476 Climbing Dallas / Fort Worth TRACON
Sat 01:16:48 PM 32.9000 -96.8333 220° Southwest 117 135 3,000 500 Climbing Dallas / Fort Worth TRACON
Sat 01:17:48 PM 32.8667 -96.8500 203° Southwest 91 105 3,900 550 Climbing Dallas / Fort Worth TRACON
Sat 01:18:48 PM 32.8500 -96.8667 220° Southwest 110 127 4,100 105 Climbing Dallas / Fort Worth TRACON
Sat 01:19:42 PM 32.8167 -96.8833 203° Southwest 106 122 4,100  Level Dallas / Fort Worth TRACON
Sat 01:20:42 PM 32.7833 -96.8833 180° South 121 139 4,100  Level Dallas / Fort Worth TRACON
Sat 01:21:48 PM 32.7500 -96.8667 157° South 116 133 4,100  Level Dallas / Fort Worth TRACON
Sat 01:22:42 PM 32.7333 -96.8500 140° Southeast 138 159 4,100  Level Dallas / Fort Worth TRACON
Sat 01:23:48 PM 32.7000 -96.8167 140° Southeast 137 158 4,100  Level Dallas / Fort Worth TRACON
Sat 01:24:48 PM 32.6667 -96.8000 157° South 140 161 4,100 100 Level Dallas / Fort Worth TRACON
Sat 01:25:48 PM 32.6333 -96.7667 140° Southeast 135 155 4,300 568 Climbing Dallas / Fort Worth TRACON
Sat 01:26:23 PM 32.6244 -96.7531 128° Southeast 124 143 5,000 928 Climbing Fort Worth Center
Sat 01:27:25 PM 32.6036 -96.7297 137° Southeast 100 115 5,800 774 Climbing Fort Worth Center
Sat 01:28:27 PM 32.5817 -96.7111 144° Southeast 96 110 6,600 774 Climbing Fort Worth Center
Sat 01:29:29 PM 32.5586 -96.6897 142° Southeast 99 114 7,400 242 Climbing Fort Worth Center
Sat 01:30:31 PM 32.5286 -96.6664 147° Southeast 140 161 7,100 -145 Descending Fort Worth Center
Sat 01:31:33 PM 32.4942 -96.6353 143° Southeast 153 176 7,100  Level Fort Worth Center
Sat 01:32:35 PM 32.4581 -96.6022 142° Southeast 153 176 7,100  Level Fort Worth Center
Sat 01:33:37 PM 32.4244 -96.5725 143° Southeast 151 174 7,100  Level Fort Worth Center
Sat 01:34:39 PM 32.3894 -96.5392 141° Southeast 151 174 7,100  Level Fort Worth Center
Sat 01:35:41 PM 32.3561 -96.5111 145° Southeast 147 169 7,100  Level Fort Worth Center
Sat 01:36:43 PM 32.3194 -96.4781 143° Southeast 152 175 7,100  Level Fort Worth Center
Sat 01:37:45 PM 32.2847 -96.4469 143° Southeast 157 181 7,100  Level Fort Worth Center
Sat 01:38:47 PM 32.2514 -96.4161 142° Southeast 152 175 7,100  Level Fort Worth Center
Sat 01:39:49 PM 32.2175 -96.3853 142° Southeast 151 174 7,100  Level Fort Worth Center
Sat 01:40:51 PM 32.1847 -96.3558 143° Southeast 148 170 7,100  Level Fort Worth Center
Sat 01:41:53 PM 32.1525 -96.3269 143° Southeast 147 169 7,100  Level Fort Worth Center
Sat 01:42:55 PM 32.1178 -96.2950 142° Southeast 156 180 7,100  Level Fort Worth Center
Sat 01:43:57 PM 32.0842 -96.2656 143° Southeast 151 174 7,100  Level Fort Worth Center
Sat 01:44:59 PM 32.0442 -96.2294 143° Southeast 151 174 7,100  Level Fort Worth Center
Sat 01:46:01 PM 32.0114 -96.1986 141° Southeast 151 174 7,100  Level Fort Worth Center
Sat 01:47:03 PM 31.9783 -96.1694 143° Southeast 150 173 7,100  Level Fort Worth Center
Sat 01:48:05 PM 31.9464 -96.1397 142° Southeast 153 176 7,100  Level Fort Worth Center
Sat 01:49:07 PM 31.9058 -96.1028 142° Southeast 154 177 7,100  Level Fort Worth Center
Sat 01:50:09 PM 31.8706 -96.0719 143° Southeast 156 180 7,100  Level Fort Worth Center
Sat 01:51:11 PM 31.8378 -96.0411 141° Southeast 151 174 7,100  Level Fort Worth Center
Sat 01:52:12 PM 31.8008 -96.0097 144° Southeast 157 181 7,100  Level Fort Worth Center
Sat 01:53:14 PM 31.7667 -95.9789 142° Southeast 156 180 7,100  Level Fort Worth Center
Sat 01:54:16 PM 31.7328 -95.9475 142° Southeast 153 176 7,100  Level Fort Worth Center
Sat 01:55:18 PM 31.6992 -95.9169 142° Southeast 157 181 7,100  Level Fort Worth Center
Sat 01:56:20 PM 31.6664 -95.8867 142° Southeast 152 175 7,100  Level Fort Worth Center
Sat 01:57:22 PM 31.6236 -95.8506 144° Southeast 154 177 7,100 50 Level Fort Worth Center
Sat 01:58:20 PM 31.5892 -95.8203 143° Southeast 153 176 7,200 50 Climbing Houston Center
Sat 01:59:22 PM 31.5561 -95.7889 141° Southeast 152 175 7,200  Level Houston Center
Sat 02:00:24 PM 31.5206 -95.7597 145° Southeast 154 177 7,200  Level Houston Center
Sat 02:01:26 PM 31.4861 -95.7292 143° Southeast 155 178 7,200 -48 Level Houston Center
Sat 02:02:28 PM 31.4522 -95.6986 142° Southeast 155 178 7,100 -49 Descending Houston Center
Sat 02:03:29 PM 31.4189 -95.6681 142° Southeast 153 176 7,100  Level Houston Center
Sat 02:04:31 PM 31.3856 -95.6369 141° Southeast 153 176 7,100  Level Houston Center
Sat 02:05:33 PM 31.3439 -95.6017 144° Southeast 153 176 7,100  Level Houston Center
Sat 02:06:35 PM 31.3094 -95.5706 142° Southeast 156 180 7,100  Level Houston Center
Sat 02:07:37 PM 31.2761 -95.5397 142° Southeast 154 177 7,100  Level Houston Center
Sat 02:08:39 PM 31.2408 -95.5097 144° Southeast 156 180 7,100  Level Houston Center
Sat 02:09:41 PM 31.2069 -95.4800 143° Southeast 155 178 7,100  Level Houston Center
Sat 02:10:43 PM 31.1731 -95.4500 143° Southeast 153 176 7,100  Level Houston Center
Sat 02:11:46 PM 31.1344 -95.4122 140° Southeast 151 174 7,100  Level Houston Center
Sat 02:12:48 PM 31.1003 -95.3844 145° Southeast 150 173 7,100 -97 Level Houston Center
Sat 02:13:50 PM 31.0656 -95.3531 142° Southeast 154 177 6,900 -339 Descending Houston Center
Sat 02:14:52 PM 31.0289 -95.3203 143° Southeast 164 189 6,400 -484 Descending Houston Center
Sat 02:15:54 PM 30.9911 -95.2889 145° Southeast 166 191 5,900 -484 Descending Houston Center
Sat 02:16:56 PM 30.9494 -95.2528 143° Southeast 155 178 5,400 -484 Descending Houston Center
Sat 02:17:58 PM 30.9175 -95.2247 143° Southeast 147 169 4,900 -484 Descending Houston Center
Sat 02:19:00 PM 30.8850 -95.1947 142° Southeast 147 169 4,400 -484 Descending Houston Center
Sat 02:20:02 PM 30.8519 -95.1672 144° Southeast 147 169 3,900 -528 Descending Houston Center
Sat 02:21:05 PM 30.8206 -95.1386 142° Southeast 144 166 3,300 -576 Descending Houston Center
Sat 02:22:07 PM 30.7897 -95.1106 142° Southeast 143 165 2,700 -823 Descending Houston Center
Sat 02:23:09 PM 30.7514 -95.0789 145° Southeast 141 162 1,600 -1,065 Descending Houston Center

Login

Don't have an account? Register now (free) for customized features, flight alerts, and more!